Time;durP1;ratioP1;P1;durP2;ratioP2;P2;SDS_P1;SDS_P2;PMS_P1;PMS_P2;Temp;Humidity;BMP_temperature;BMP_pressure;BME280_temperature;BME280_humidity;BME280_pressure;Samples;Min_cycle;Max_cycle;Signal;HPM_P1;HPM_P2
2022/10/06 00:25:02;;;;;;;26.80;17.80;;;;;;;8.23;91.71;99082.73;101763;1320;547211;-76
2022/10/06 00:32:36;;;;;;;25.50;15.10;;;;;;;8.46;92.60;99084.09;102463;1311;22575;-75
2022/10/06 00:44:48;;;;;;;21.00;13.40;;;;;;;8.68;91.61;99085.27;101776;1316;549109;-79
2022/10/06 01:11:39;;;;;;;;;;;;;;;;;;;;;
2022/10/06 02:30:13;;;;;;;22.00;13.90;;;;;;;8.34;91.68;99157.67;103279;1302;24408;-79
2022/10/06 04:15:08;;;;;;;20.70;12.70;;;;;;;7.57;92.03;99182.66;103349;1302;24371;-77
2022/10/06 04:26:13;;;;;;;;;;;;;;;;;;;;;
2022/10/06 04:30:39;;;;;;;;;;;;;;;;;;;;;
2022/10/06 04:34:58;;;;;;;25.00;14.10;;;;;;;7.48;93.94;99191.83;103629;1298;137688;-75
2022/10/06 05:09:16;;;;;;;30.40;16.40;;;;;;;7.29;94.26;99214.42;97008;1337;22763;-76
2022/10/06 06:12:07;;;;;;;22.40;13.10;;;;;;;8.44;96.36;99264.52;101612;1319;545611;-74
2022/10/06 06:42:41;;;;;;;18.60;10.60;;;;;;;9.74;94.23;99299.34;102686;1314;137812;-74
2022/10/06 08:00:57;;;;;;;12.40;6.80;;;;;;;12.98;84.95;99370.08;101672;1320;548127;-76
2022/10/06 08:28:12;;;;;;;;;;;;;;;;;;;;;
2022/10/06 08:43:23;;;;;;;;;;;;;;;;;;;;;
2022/10/06 08:55:44;;;;;;;11.20;5.10;;;;;;;16.44;76.91;99418.80;103439;1302;137212;-74
2022/10/06 09:07:57;;;;;;;9.50;4.60;;;;;;;16.54;74.28;99422.33;102116;1314;137290;-78
2022/10/06 09:11:48;;;;;;;7.30;3.70;;;;;;;16.79;74.37;99416.88;102198;1314;137899;-74
2022/10/06 09:15:35;;;;;;;5.50;3.50;;;;;;;16.99;72.81;99419.21;102300;1314;22583;-76
2022/10/06 09:30:08;;;;;;;6.70;3.60;;;;;;;16.95;70.98;99439.21;102275;1321;137643;-74
2022/10/06 09:38:03;;;;;;;6.80;4.00;;;;;;;16.94;71.05;99446.30;101805;1322;22784;-73
2022/10/06 09:41:52;;;;;;;6.10;3.70;;;;;;;17.02;71.25;99442.85;102148;1315;137830;-76
2022/10/06 09:45:31;;;;;;;3.80;3.30;;;;;;;17.19;71.01;99448.59;102319;1312;24338;-76
2022/10/06 10:00:36;;;;;;;;;;;;;;;;;;;;;
2022/10/06 10:28:40;;;;;;;6.60;3.50;;;;;;;19.00;67.05;99444.70;101384;1326;22592;-76
2022/10/06 10:36:54;;;;;;;4.40;3.00;;;;;;;19.43;66.25;99436.20;101412;1319;548134;-79
2022/10/06 10:44:15;;;;;;;4.90;3.00;;;;;;;19.58;64.78;99446.11;103589;1302;25459;-75
2022/10/06 10:56:16;;;;;;;8.40;3.30;;;;;;;19.59;63.78;99450.92;102044;1317;137388;-75
2022/10/06 11:35:43;;;;;;;5.90;2.80;;;;;;;20.51;61.59;99456.52;102508;1313;24296;-75
2022/10/06 11:43:34;;;;;;;;;;;;;;;;;;;;;
2022/10/06 12:03:57;;;;;;;5.50;3.40;;;;;;;21.17;59.96;99465.74;102481;1310;545604;-75
2022/10/06 12:11:52;;;;;;;5.20;2.80;;;;;;;21.19;58.83;99475.44;102918;1310;22629;-74
2022/10/06 12:32:04;;;;;;;6.00;3.60;;;;;;;20.03;61.28;99486.70;104690;1286;137435;-74
2022/10/06 12:43:14;;;;;;;;;;;;;;;;;;;;;
2022/10/06 12:51:18;;;;;;;8.70;3.60;;;;;;;19.61;63.19;99486.02;102957;1310;22673;-75
2022/10/06 13:17:53;;;;;;;;;;;;;;;;;;;;;
2022/10/06 13:30:34;;;;;;;5.20;3.40;;;;;;;21.16;61.05;99489.54;102355;1316;558224;-75
2022/10/06 13:34:04;;;;;;;6.40;3.50;;;;;;;21.22;59.43;99496.30;103925;1301;23454;-74
2022/10/06 14:13:30;;;;;;;11.40;3.90;;;;;;;19.90;62.42;99512.95;101779;1319;548684;-75
2022/10/06 14:17:23;;;;;;;11.60;4.30;;;;;;;19.72;63.10;99519.77;103201;1303;25345;-74
2022/10/06 14:47:41;;;;;;;12.70;4.00;;;;;;;19.19;66.32;99541.52;100053;1335;545668;-75
2022/10/06 14:50:08;;;;;;;10.10;4.10;;;;;;;19.12;66.35;99542.99;101277;1313;22597;-74
2022/10/06 14:52:36;;;;;;;12.70;4.00;;;;;;;19.05;66.62;99546.02;101210;1328;24325;-74
2022/10/06 14:55:04;;;;;;;9.10;3.90;;;;;;;19.00;66.98;99552.21;101149;1328;137439;-74
2022/10/06 14:57:31;;;;;;;12.60;4.00;;;;;;;18.95;67.23;99553.96;101348;1325;22504;-74
2022/10/06 14:59:57;;;;;;;11.70;4.40;;;;;;;18.91;67.54;99555.40;101174;1302;137493;-76
2022/10/06 15:02:24;;;;;;;11.50;4.50;;;;;;;18.87;67.84;99557.88;101300;1324;22696;-75
2022/10/06 15:04:51;;;;;;;13.10;3.70;;;;;;;18.83;68.12;99563.09;101372;1303;24046;-74
2022/10/06 15:10:04;;;;;;;7.30;4.10;;;;;;;18.70;68.64;99568.50;101423;1313;22636;-74
2022/10/06 15:12:31;;;;;;;8.60;4.50;;;;;;;18.63;68.91;99571.30;101244;1318;137503;-74
2022/10/06 15:14:58;;;;;;;10.80;5.20;;;;;;;18.57;69.22;99572.48;101350;1317;24056;-74
2022/10/06 15:17:25;;;;;;;11.20;4.10;;;;;;;18.50;69.45;99570.80;101287;1311;137709;-74
2022/10/06 15:19:51;;;;;;;9.30;4.10;;;;;;;18.42;69.48;99572.05;101500;1324;25479;-73
2022/10/06 15:22:19;;;;;;;11.10;4.60;;;;;;;18.33;69.77;99570.46;101386;1316;25717;-73
2022/10/06 15:24:49;;;;;;;10.70;4.90;;;;;;;18.26;69.91;99573.08;101306;1324;137515;-73
2022/10/06 15:30:01;;;;;;;11.00;4.30;;;;;;;18.10;70.21;99580.17;101277;1325;137980;-75
2022/10/06 15:32:28;;;;;;;16.60;4.80;;;;;;;18.05;70.44;99582.66;101396;1300;23712;-75
2022/10/06 15:34:55;;;;;;;11.80;4.70;;;;;;;17.98;70.62;99583.30;101355;1325;22556;-75
2022/10/06 15:37:22;;;;;;;9.60;4.30;;;;;;;17.92;70.96;99584.02;101276;1304;137721;-75
2022/10/06 15:39:50;;;;;;;10.10;4.70;;;;;;;17.85;71.19;99585.01;101421;1315;22777;-74
2022/10/06 15:42:20;;;;;;;9.20;4.40;;;;;;;17.77;71.41;99584.72;101384;1302;137793;-74
2022/10/06 15:44:47;;;;;;;8.90;4.50;;;;;;;17.72;71.76;99589.48;101420;1324;22563;-73
2022/10/06 15:47:14;;;;;;;7.60;4.60;;;;;;;17.66;71.89;99596.81;101369;1327;24368;-74
2022/10/06 15:49:41;;;;;;;13.00;4.50;;;;;;;17.61;72.16;99602.05;101486;1304;139355;-74
2022/10/06 15:52:11;;;;;;;8.80;4.20;;;;;;;17.55;72.58;99604.10;101418;1325;22617;-73
2022/10/06 15:54:39;;;;;;;13.10;4.90;;;;;;;17.50;72.92;99608.20;101367;1319;140616;-76
2022/10/06 15:57:09;;;;;;;17.50;5.80;;;;;;;17.45;73.18;99609.20;101400;1313;25498;-74
2022/10/06 15:59:38;;;;;;;13.10;5.20;;;;;;;17.40;73.33;99608.39;101423;1310;138154;-75
2022/10/06 16:02:13;;;;;;;14.80;5.50;;;;;;;17.36;73.51;99607.41;101444;1303;25655;-73
2022/10/06 16:07:16;;;;;;;12.50;5.50;;;;;;;17.28;73.97;99612.08;101473;1306;137787;-74
2022/10/06 16:09:44;;;;;;;10.10;5.70;;;;;;;17.23;74.17;99610.27;101360;1310;25037;-77
2022/10/06 16:12:15;;;;;;;9.00;6.00;;;;;;;17.20;74.30;99611.27;101394;1321;137579;-73
2022/10/06 16:14:42;;;;;;;12.20;5.90;;;;;;;17.15;74.71;99611.29;101368;1314;23477;-73
2022/10/06 16:17:10;;;;;;;25.80;13.60;;;;;;;17.12;74.92;99618.35;101599;1325;24426;-73
2022/10/06 16:19:38;;;;;;;29.10;18.50;;;;;;;17.07;75.29;99619.08;101314;1297;137858;-75
2022/10/06 16:22:07;;;;;;;;;;;;;;;17.02;75.47;99620.08;101496;1315;25604;-74
2022/10/06 16:24:33;;;;;;;16.10;10.30;;;;;;;16.97;75.82;99627.73;101355;1324;124194;-74
2022/10/06 16:27:01;;;;;;;10.90;8.00;;;;;;;16.92;76.16;99630.30;101385;1311;25577;-75
2022/10/06 16:29:28;;;;;;;7.90;5.50;;;;;;;16.85;76.48;99629.23;101482;1304;137839;-73
2022/10/06 16:31:55;;;;;;;9.50;6.30;;;;;;;16.79;76.85;99642.58;101417;1309;22490;-74
2022/10/06 16:34:22;;;;;;;15.10;8.40;;;;;;;16.74;77.34;99647.56;101403;1317;22610;-73
2022/10/06 16:36:49;;;;;;;21.40;10.30;;;;;;;16.66;77.84;99647.07;101275;1325;137560;-74
2022/10/06 16:39:18;;;;;;;18.50;8.90;;;;;;;16.56;78.27;99650.64;101385;1319;22477;-73
2022/10/06 16:41:46;;;;;;;12.40;7.40;;;;;;;16.48;78.85;99654.94;101289;1320;137748;-73
2022/10/06 16:44:13;;;;;;;8.60;6.90;;;;;;;16.40;79.22;99664.79;101498;1324;26818;-74
2022/10/06 16:46:41;;;;;;;11.30;6.50;;;;;;;16.34;79.47;99665.42;101416;1324;22491;-72
2022/10/06 16:49:08;;;;;;;9.20;5.90;;;;;;;16.30;79.80;99668.15;101321;1324;137520;-74
2022/10/06 16:51:40;;;;;;;9.00;5.30;;;;;;;16.25;79.92;99670.34;101912;1309;23144;-71
2022/10/06 16:54:10;;;;;;;8.60;6.20;;;;;;;16.21;79.46;99674.39;101727;1310;138314;-72
2022/10/06 16:56:43;;;;;;;13.10;6.80;;;;;;;16.16;79.79;99669.50;101716;1317;22494;-74
2022/10/06 16:59:20;;;;;;;10.90;6.50;;;;;;;16.11;79.94;99672.16;102622;1303;25392;-74
2022/10/06 17:01:49;;;;;;;14.30;6.90;;;;;;;16.05;80.03;99678.29;102859;1294;24431;-72
2022/10/06 17:04:19;;;;;;;13.70;8.10;;;;;;;16.00;80.13;99680.45;102777;1317;22482;-73
2022/10/06 17:06:48;;;;;;;15.90;9.90;;;;;;;15.93;80.16;99686.95;102745;1294;137756;-73
2022/10/06 17:09:18;;;;;;;16.60;9.30;;;;;;;15.86;80.57;99689.46;102805;1294;22626;-74
2022/10/06 17:11:50;;;;;;;18.00;9.50;;;;;;;15.78;81.04;99691.27;102378;1312;138208;-74
2022/10/06 17:14:18;;;;;;;14.50;7.90;;;;;;;15.70;81.41;99695.71;102210;1318;25433;-72
2022/10/06 17:16:47;;;;;;;15.20;8.30;;;;;;;15.64;81.54;99702.97;102245;1309;25343;-71
2022/10/06 17:19:15;;;;;;;18.60;9.90;;;;;;;15.63;81.65;99705.96;102318;1306;137546;-72
2022/10/06 17:21:42;;;;;;;16.20;10.30;;;;;;;15.60;81.88;99707.06;102230;1317;24252;-75
2022/10/06 17:24:09;;;;;;;20.10;11.00;;;;;;;15.54;82.18;99705.64;102039;1297;138507;-74
2022/10/06 17:26:38;;;;;;;18.10;11.80;;;;;;;15.46;82.47;99702.91;102061;1295;22560;-73
2022/10/06 17:29:10;;;;;;;16.10;11.40;;;;;;;15.39;82.78;99708.77;102133;1318;22506;-73
2022/10/06 17:31:40;;;;;;;15.20;10.10;;;;;;;15.31;83.40;99717.36;102846;1287;138453;-72
2022/10/06 17:34:11;;;;;;;16.90;10.30;;;;;;;15.25;83.70;99712.67;102432;1318;25600;-72
2022/10/06 17:36:42;;;;;;;15.50;10.30;;;;;;;15.18;84.55;99717.43;102105;1316;137990;-74
2022/10/06 17:39:12;;;;;;;25.60;12.30;;;;;;;15.12;85.01;99721.54;102243;1317;22941;-74
2022/10/06 17:41:41;;;;;;;20.00;12.20;;;;;;;15.05;85.06;99722.11;102089;1291;138651;-77
2022/10/06 17:44:20;;;;;;;17.70;12.60;;;;;;;14.98;85.39;99724.33;102330;1295;24506;-73
2022/10/06 17:46:48;;;;;;;23.10;14.70;;;;;;;14.90;85.62;99725.20;102249;1308;24376;-73
2022/10/06 17:49:19;;;;;;;23.50;16.60;;;;;;;14.83;85.58;99724.89;102549;1304;138271;-72
2022/10/06 17:51:47;;;;;;;24.80;17.50;;;;;;;14.78;85.42;99722.70;102504;1306;25410;-72
2022/10/06 17:54:18;;;;;;;27.70;18.20;;;;;;;14.73;85.37;99729.84;102243;1317;138496;-72
2022/10/06 17:56:50;;;;;;;23.20;16.80;;;;;;;14.70;85.25;99731.55;102546;1294;22479;-72
2022/10/06 17:59:29;;;;;;;24.00;14.60;;;;;;;14.65;85.29;99732.23;102430;1295;25561;-72
2022/10/06 18:01:57;;;;;;;;;;;;;;;14.60;85.62;99730.81;102541;1301;25413;-72
2022/10/06 18:04:25;;;;;;;20.40;14.10;;;;;;;14.53;85.60;99729.52;102417;1317;22687;-72
2022/10/06 18:06:52;;;;;;;20.30;14.20;;;;;;;14.47;85.56;99730.31;102816;1310;138650;-72
2022/10/06 18:09:20;;;;;;;18.20;13.70;;;;;;;14.40;85.79;99729.13;102596;1311;24248;-72
2022/10/06 18:11:53;;;;;;;19.20;13.30;;;;;;;14.33;85.83;99731.98;102418;1302;138846;-72
2022/10/06 18:14:23;;;;;;;20.00;11.80;;;;;;;14.29;86.24;99731.98;102412;1310;22873;-72
2022/10/06 18:16:56;;;;;;;18.40;11.70;;;;;;;14.25;86.72;99731.34;102540;1309;22606;-72
2022/10/06 18:19:31;;;;;;;18.90;11.60;;;;;;;14.22;87.09;99729.90;102450;1304;138368;-72
2022/10/06 18:22:01;;;;;;;16.90;11.50;;;;;;;14.21;86.92;99731.41;102873;1301;24509;-72
2022/10/06 18:24:30;;;;;;;20.60;12.30;;;;;;;14.18;87.08;99734.15;102505;1304;137981;-72
2022/10/06 18:26:59;;;;;;;15.70;10.90;;;;;;;14.17;87.50;99735.98;102788;1295;22252;-72
2022/10/06 18:29:32;;;;;;;19.90;11.90;;;;;;;14.16;87.91;99748.83;102583;1306;24368;-72
2022/10/06 18:32:01;;;;;;;17.30;11.40;;;;;;;14.13;87.79;99749.70;102333;1294;25425;-72
2022/10/06 18:34:28;;;;;;;19.50;12.00;;;;;;;14.11;87.74;99754.52;101989;1318;24060;-72
2022/10/06 18:36:55;;;;;;;18.40;11.60;;;;;;;14.08;87.66;99757.62;102075;1316;137898;-72
2022/10/06 18:39:21;;;;;;;21.50;12.10;;;;;;;14.06;87.74;99762.34;102255;1310;23590;-72
2022/10/06 18:41:49;;;;;;;18.40;12.20;;;;;;;14.02;87.91;99762.69;102174;1318;138286;-72
2022/10/06 18:48:53;;;;;;;21.80;12.10;;;;;;;14.00;87.96;99763.45;102505;1318;24192;-72
2022/10/06 18:49:51;;;;;;;18.90;12.30;;;;;;;13.93;88.20;99771.44;102911;1295;138283;-72
2022/10/06 18:52:20;;;;;;;17.80;12.70;;;;;;;13.92;88.24;99773.81;104073;1295;22524;-72
2022/10/06 18:54:47;;;;;;;25.80;15.80;;;;;;;13.91;88.57;99775.71;102420;1298;137913;-72
2022/10/06 18:57:15;;;;;;;29.00;17.10;;;;;;;13.90;88.72;99779.19;102885;1312;22500;-72
2022/10/06 18:59:42;;;;;;;26.70;16.20;;;;;;;13.87;88.90;99780.88;102634;1314;138396;-72
2022/10/06 19:02:09;;;;;;;28.00;18.90;;;;;;;13.86;89.23;99785.11;102498;1315;22486;-72
2022/10/06 19:04:37;;;;;;;28.30;19.50;;;;;;;13.84;89.56;99786.22;102549;1308;26517;-72
2022/10/06 19:07:04;;;;;;;21.70;15.60;;;;;;;13.82;89.60;99788.74;102481;1301;138100;-72
2022/10/06 19:09:31;;;;;;;19.20;11.90;;;;;;;13.79;89.12;99791.23;102937;1291;22488;-72
2022/10/06 19:11:58;;;;;;;21.80;13.40;;;;;;;13.77;88.68;99797.13;102632;1312;138702;-72
2022/10/06 19:14:31;;;;;;;17.50;12.40;;;;;;;13.74;88.39;99797.45;102814;1294;25475;-72
2022/10/06 19:17:00;;;;;;;14.50;10.60;;;;;;;13.72;88.35;99797.39;102588;1294;22484;-72
2022/10/06 19:19:29;;;;;;;13.90;9.20;;;;;;;13.71;88.49;99805.41;102536;1307;139057;-72
2022/10/06 19:21:59;;;;;;;14.00;9.50;;;;;;;13.69;88.40;99804.77;102484;1308;30686;-72
2022/10/06 19:24:29;;;;;;;13.40;9.20;;;;;;;13.68;88.27;99813.71;102583;1316;138464;-72
2022/10/06 19:26:56;;;;;;;18.90;10.90;;;;;;;13.67;88.22;99813.27;102670;1292;24440;-72
2022/10/06 19:29:25;;;;;;;13.50;11.00;;;;;;;13.66;88.37;99816.99;102722;1301;22598;-72
2022/10/06 19:31:55;;;;;;;13.20;10.40;;;;;;;13.63;88.46;99821.08;102538;1300;137905;-72
2022/10/06 19:34:24;;;;;;;14.00;10.40;;;;;;;13.62;88.47;99826.52;102980;1313;24403;-72
2022/10/06 19:36:52;;;;;;;14.50;10.00;;;;;;;13.61;88.34;99829.44;102882;1296;138274;-72
2022/10/06 19:39:29;;;;;;;16.50;10.50;;;;;;;13.59;88.46;99836.41;102692;1313;25473;-72
2022/10/06 19:44:42;;;;;;;13.10;10.00;;;;;;;13.57;88.55;99838.09;102801;1313;25437;-73
2022/10/06 19:47:12;;;;;;;17.90;11.00;;;;;;;13.55;88.72;99836.92;102851;1306;23887;-72
2022/10/06 19:49:40;;;;;;;15.50;10.70;;;;;;;13.51;88.75;99840.44;103075;1307;138416;-72
2022/10/06 19:52:12;;;;;;;17.40;11.70;;;;;;;13.49;88.80;99844.97;102770;1312;24450;-72
2022/10/06 19:54:40;;;;;;;18.10;11.00;;;;;;;13.44;88.84;99844.47;102839;1296;138718;-72
2022/10/06 19:57:10;;;;;;;13.40;9.10;;;;;;;13.43;88.77;99847.56;102681;1302;25345;-72
2022/10/06 19:59:37;;;;;;;13.20;10.40;;;;;;;13.42;88.76;99850.77;102585;1314;138366;-72
2022/10/06 20:02:09;;;;;;;13.00;10.40;;;;;;;13.41;88.65;99852.98;102571;1313;25417;-72
2022/10/06 20:04:38;;;;;;;17.90;8.60;;;;;;;13.40;88.90;99853.75;102563;1314;23883;-72
2022/10/06 20:07:08;;;;;;;10.40;9.00;;;;;;;13.39;88.72;99860.12;102593;1291;138167;-72
2022/10/06 20:09:34;;;;;;;;;;;;;;;13.37;88.46;99860.01;102588;1314;22756;-72
2022/10/06 20:12:01;;;;;;;16.20;9.00;;;;;;;13.36;88.43;99862.05;102458;1298;124421;-72
2022/10/06 20:14:28;;;;;;;13.10;10.10;;;;;;;13.34;88.36;99867.75;102691;1296;25249;-72
2022/10/06 20:16:57;;;;;;;;;;;;;;;13.33;88.50;99867.44;102625;1314;24335;-72
2022/10/06 20:19:24;;;;;;;12.40;9.10;;;;;;;13.28;88.47;99871.45;102505;1314;124804;-72
2022/10/06 20:21:51;;;;;;;12.60;9.10;;;;;;;13.25;88.55;99871.02;102647;1305;22546;-72
2022/10/06 20:24:23;;;;;;;16.50;9.90;;;;;;;13.21;88.53;99876.02;102456;1313;137955;-72
2022/10/06 20:26:52;;;;;;;13.80;9.00;;;;;;;13.18;88.61;99876.23;102672;1296;25288;-72
2022/10/06 20:29:22;;;;;;;13.70;9.50;;;;;;;13.17;88.56;99878.11;102697;1309;25309;-72
2022/10/06 20:31:51;;;;;;;13.80;9.00;;;;;;;13.15;88.50;99878.16;102489;1297;137693;-72
2022/10/06 20:34:23;;;;;;;15.60;7.90;;;;;;;13.13;88.54;99876.39;102690;1309;25303;-72
2022/10/06 20:36:52;;;;;;;16.00;9.00;;;;;;;13.10;88.46;99877.15;102499;1313;138373;-72
2022/10/06 20:42:08;;;;;;;12.50;7.80;;;;;;;13.06;88.36;99881.49;102783;1314;138366;-72
2022/10/06 20:44:35;;;;;;;11.90;8.00;;;;;;;13.04;88.19;99879.61;102655;1314;22873;-72
2022/10/06 20:47:03;;;;;;;10.20;7.10;;;;;;;13.03;87.98;99885.83;102563;1315;22496;-72
2022/10/06 20:49:31;;;;;;;11.30;7.50;;;;;;;12.99;87.80;99882.98;102730;1310;137961;-72
2022/10/06 20:52:01;;;;;;;15.10;7.20;;;;;;;12.98;87.65;99880.73;102666;1291;22504;-72
2022/10/06 20:54:33;;;;;;;11.50;7.40;;;;;;;12.96;87.61;99883.96;102739;1300;137963;-72
2022/10/06 20:57:12;;;;;;;12.50;7.30;;;;;;;12.94;87.47;99884.84;102816;1302;23730;-72
2022/10/06 20:59:39;;;;;;;;;;;;;;;12.92;87.14;99881.84;102724;1311;138082;-72
2022/10/06 21:02:06;;;;;;;12.40;7.20;;;;;;;12.89;87.09;99886.12;102970;1313;24330;-72
2022/10/06 21:04:33;;;;;;;13.60;7.80;;;;;;;12.87;87.04;99886.86;102890;1313;22498;-72
2022/10/06 21:07:02;;;;;;;13.70;8.00;;;;;;;12.85;87.12;99891.21;102413;1315;137886;-72
2022/10/06 21:09:32;;;;;;;;;;;;;;;12.83;86.98;99896.18;102575;1315;25443;-72
2022/10/06 21:11:59;;;;;;;24.50;12.60;;;;;;;12.79;86.90;99894.37;102420;1312;124313;-72
2022/10/06 21:14:26;;;;;;;19.20;12.10;;;;;;;12.77;86.83;99897.75;102561;1304;25352;-72
2022/10/06 21:16:53;;;;;;;18.40;12.00;;;;;;;12.75;87.04;99900.46;102704;1295;24143;-72
2022/10/06 21:19:20;;;;;;;21.80;12.70;;;;;;;12.72;87.07;99897.67;102750;1311;138058;-72
2022/10/06 21:21:49;;;;;;;22.30;13.30;;;;;;;12.70;87.11;99901.13;102795;1313;24488;-72
2022/10/06 21:24:21;;;;;;;24.90;14.10;;;;;;;12.69;87.23;99896.89;102752;1295;138582;-72
2022/10/06 21:26:49;;;;;;;22.70;13.80;;;;;;;12.68;87.13;99899.80;102485;1316;22481;-72
2022/10/06 21:29:16;;;;;;;31.40;16.80;;;;;;;12.65;87.22;99904.84;102704;1313;25320;-72
2022/10/06 21:31:44;;;;;;;28.40;16.90;;;;;;;12.61;87.45;99907.30;102766;1304;138138;-72
2022/10/06 21:34:13;;;;;;;33.50;18.20;;;;;;;12.58;87.52;99903.89;102506;1314;23881;-72
2022/10/06 21:36:42;;;;;;;32.50;16.40;;;;;;;12.55;87.68;99905.00;102717;1313;138109;-72
2022/10/06 21:39:10;;;;;;;28.30;17.60;;;;;;;12.53;87.72;99908.71;102738;1313;24315;-72
2022/10/06 21:41:40;;;;;;;24.50;14.80;;;;;;;12.52;87.65;99908.14;102642;1313;138528;-72
2022/10/06 21:44:14;;;;;;;24.50;15.20;;;;;;;12.52;87.86;99910.16;102723;1313;23211;-72
2022/10/06 21:46:48;;;;;;;24.40;14.20;;;;;;;12.50;87.77;99911.42;102769;1304;22536;-72
2022/10/06 21:49:18;;;;;;;25.10;15.10;;;;;;;12.47;87.89;99912.58;102518;1298;138068;-74
2022/10/06 21:51:47;;;;;;;25.90;16.00;;;;;;;12.45;87.91;99908.23;102511;1301;25535;-75
2022/10/06 21:54:15;;;;;;;24.80;15.20;;;;;;;12.42;87.84;99916.20;102477;1304;138269;-72
2022/10/06 21:56:42;;;;;;;19.00;12.80;;;;;;;12.38;87.93;99916.86;102438;1304;22489;-77
2022/10/06 21:59:10;;;;;;;19.20;11.60;;;;;;;12.35;88.07;99917.64;102460;1314;22606;-71
2022/10/06 22:01:44;;;;;;;18.60;11.40;;;;;;;12.31;88.04;99918.02;102461;1297;138869;-71
2022/10/06 22:04:21;;;;;;;17.70;10.70;;;;;;;12.27;88.16;99918.02;102675;1293;23926;-72
2022/10/06 22:06:52;;;;;;;18.70;10.10;;;;;;;12.23;87.97;99918.90;102446;1304;138511;-72
2022/10/06 22:09:29;;;;;;;17.30;9.70;;;;;;;12.19;88.28;99917.27;102639;1315;22484;-72
2022/10/06 22:11:57;;;;;;;13.90;8.50;;;;;;;12.13;88.10;99915.41;102381;1315;138074;-72
2022/10/06 22:14:27;;;;;;;13.80;9.10;;;;;;;12.09;88.44;99913.08;102585;1315;24286;-71
2022/10/06 22:17:11;;;;;;;14.50;8.90;;;;;;;12.05;88.41;99910.52;102744;1299;22482;-72
2022/10/06 22:19:44;;;;;;;13.20;8.00;;;;;;;11.99;88.43;99905.50;102516;1314;138040;-72
2022/10/06 22:22:12;;;;;;;11.40;7.60;;;;;;;11.95;88.44;99910.23;102616;1306;22471;-71
2022/10/06 22:24:39;;;;;;;10.70;7.30;;;;;;;11.92;88.30;99911.43;102417;1313;137907;-72
2022/10/06 22:27:09;;;;;;;10.40;8.10;;;;;;;11.89;88.56;99910.40;102720;1315;25348;-72
2022/10/06 22:29:38;;;;;;;13.30;7.70;;;;;;;11.86;88.74;99914.45;102576;1312;138211;-71
2022/10/06 22:32:25;;;;;;;15.10;8.60;;;;;;;11.83;88.58;99912.69;102709;1291;25282;-70
2022/10/06 22:34:53;;;;;;;20.50;9.50;;;;;;;11.78;88.66;99911.11;102490;1306;25368;-72
2022/10/06 22:37:24;;;;;;;16.20;8.80;;;;;;;11.74;88.48;99916.00;103054;1314;138083;-73
2022/10/06 22:39:53;;;;;;;17.20;9.10;;;;;;;11.71;88.59;99915.56;102526;1306;24370;-71
2022/10/06 22:42:22;;;;;;;11.80;7.50;;;;;;;11.69;88.66;99910.99;102502;1315;137912;-72
2022/10/06 22:44:54;;;;;;;10.90;7.80;;;;;;;11.66;88.55;99912.35;102634;1315;22477;-72
2022/10/06 22:47:28;;;;;;;13.70;8.10;;;;;;;11.61;88.25;99909.98;102710;1292;22479;-70
2022/10/06 22:49:59;;;;;;;15.40;8.30;;;;;;;11.55;88.68;99908.61;102767;1307;23806;-71
2022/10/06 22:52:40;;;;;;;10.80;8.00;;;;;;;11.50;88.77;99911.23;102610;1315;22684;-71
2022/10/06 22:55:31;;;;;;;14.30;8.10;;;;;;;11.43;88.67;99911.29;102453;1315;137909;-71
2022/10/06 22:58:14;;;;;;;12.40;7.20;;;;;;;11.38;88.79;99911.86;102448;1302;23890;-71
2022/10/06 23:00:51;;;;;;;13.60;7.40;;;;;;;11.32;88.82;99910.86;102968;1307;137811;-71
2022/10/06 23:03:24;;;;;;;11.30;7.50;;;;;;;11.27;88.78;99913.23;102853;1313;22598;-71
2022/10/06 23:06:01;;;;;;;11.00;7.30;;;;;;;11.21;89.04;99911.65;102729;1313;139355;-72
2022/10/06 23:08:34;;;;;;;12.70;7.70;;;;;;;11.15;88.50;99914.44;102772;1311;24320;-72
2022/10/06 23:11:10;;;;;;;12.20;7.50;;;;;;;11.10;88.85;99915.52;102546;1305;22748;-72
2022/10/06 23:13:43;;;;;;;16.80;8.10;;;;;;;11.03;89.09;99910.30;102710;1314;138527;-72
2022/10/06 23:16:25;;;;;;;11.70;7.30;;;;;;;10.97;88.87;99905.52;102562;1315;22477;-71
2022/10/06 23:18:53;;;;;;;10.70;7.10;;;;;;;10.92;89.26;99906.99;102656;1298;138100;-71
2022/10/06 23:21:26;;;;;;;12.40;6.80;;;;;;;10.86;88.99;99913.34;102794;1313;22474;-71
2022/10/06 23:23:55;;;;;;;10.30;6.60;;;;;;;10.82;89.17;99911.08;102617;1300;138109;-70
2022/10/06 23:26:22;;;;;;;9.70;6.70;;;;;;;10.77;89.29;99918.34;102791;1313;25667;-71
2022/10/06 23:28:55;;;;;;;10.70;6.80;;;;;;;10.73;89.45;99915.11;102717;1288;24880;-71
2022/10/06 23:31:22;;;;;;;9.50;6.30;;;;;;;10.70;89.21;99916.70;102530;1303;137866;-72
2022/10/06 23:33:49;;;;;;;10.20;5.90;;;;;;;10.65;89.25;99912.39;102534;1314;24313;-71
2022/10/06 23:36:17;;;;;;;9.10;5.90;;;;;;;10.61;89.56;99917.92;102449;1305;138152;-70
2022/10/06 23:38:48;;;;;;;10.10;6.10;;;;;;;10.56;89.67;99919.46;102590;1313;22871;-71
2022/10/06 23:41:15;;;;;;;9.60;6.50;;;;;;;10.53;89.76;99920.48;102672;1313;23148;-72
2022/10/06 23:43:42;;;;;;;11.60;6.90;;;;;;;10.50;89.82;99922.52;102640;1299;137714;-71
2022/10/06 23:46:09;;;;;;;8.50;5.90;;;;;;;10.47;90.24;99926.29;102867;1304;22624;-71
2022/10/06 23:48:38;;;;;;;9.10;6.40;;;;;;;10.45;90.04;99925.70;102698;1313;137761;-72
2022/10/06 23:51:10;;;;;;;10.40;6.50;;;;;;;10.41;89.98;99924.19;102649;1313;25279;-71
2022/10/06 23:53:38;;;;;;;10.70;6.50;;;;;;;10.38;90.34;99925.15;102561;1298;138014;-71
2022/10/06 23:56:06;;;;;;;12.90;7.80;;;;;;;10.34;90.32;99926.36;102673;1303;22559;-71
2022/10/06 23:58:34;;;;;;;11.90;7.20;;;;;;;10.32;90.47;99923.84;102460;1305;23877;-71
